sensor_id;sensor_type;location;lat;lon;timestamp;P1;durP1;ratioP1;P2;durP2;ratioP2
21505;SDS011;10914;48.886;9.394;2023-07-13T00:01:16;20.37;;;19.20;;
21505;SDS011;10914;48.886;9.394;2023-07-13T00:03:42;20.60;;;19.30;;
21505;SDS011;10914;48.886;9.394;2023-07-13T00:06:07;20.27;;;19.03;;
21505;SDS011;10914;48.886;9.394;2023-07-13T00:08:33;19.70;;;18.70;;
21505;SDS011;10914;48.886;9.394;2023-07-13T00:10:59;20.50;;;19.30;;
21505;SDS011;10914;48.886;9.394;2023-07-13T00:13:24;20.30;;;18.90;;
21505;SDS011;10914;48.886;9.394;2023-07-13T00:15:49;21.10;;;19.93;;
21505;SDS011;10914;48.886;9.394;2023-07-13T00:18:14;18.73;;;17.73;;
21505;SDS011;10914;48.886;9.394;2023-07-13T00:20:39;20.10;;;18.90;;
21505;SDS011;10914;48.886;9.394;2023-07-13T00:23:06;19.60;;;18.60;;
21505;SDS011;10914;48.886;9.394;2023-07-13T00:25:31;19.80;;;18.60;;
21505;SDS011;10914;48.886;9.394;2023-07-13T00:27:56;24.10;;;21.85;;
21505;SDS011;10914;48.886;9.394;2023-07-13T00:30:22;21.13;;;20.02;;
21505;SDS011;10914;48.886;9.394;2023-07-13T00:32:48;20.58;;;19.48;;
21505;SDS011;10914;48.886;9.394;2023-07-13T00:35:14;19.97;;;18.80;;
21505;SDS011;10914;48.886;9.394;2023-07-13T00:37:39;20.10;;;19.00;;
21505;SDS011;10914;48.886;9.394;2023-07-13T00:40:05;20.53;;;19.53;;
21505;SDS011;10914;48.886;9.394;2023-07-13T00:42:30;19.98;;;18.98;;
21505;SDS011;10914;48.886;9.394;2023-07-13T00:47:27;25.35;;;23.65;;
21505;SDS011;10914;48.886;9.394;2023-07-13T00:49:52;22.50;;;21.03;;
21505;SDS011;10914;48.886;9.394;2023-07-13T00:52:17;22.23;;;20.53;;
21505;SDS011;10914;48.886;9.394;2023-07-13T00:54:44;32.93;;;31.13;;
21505;SDS011;10914;48.886;9.394;2023-07-13T00:57:12;37.20;;;35.35;;
21505;SDS011;10914;48.886;9.394;2023-07-13T00:59:39;32.28;;;30.52;;
21505;SDS011;10914;48.886;9.394;2023-07-13T01:02:05;36.13;;;34.22;;
21505;SDS011;10914;48.886;9.394;2023-07-13T01:04:30;30.52;;;28.60;;
21505;SDS011;10914;48.886;9.394;2023-07-13T01:06:56;33.97;;;32.17;;
21505;SDS011;10914;48.886;9.394;2023-07-13T01:09:21;27.65;;;25.95;;
21505;SDS011;10914;48.886;9.394;2023-07-13T01:11:47;25.52;;;24.17;;
21505;SDS011;10914;48.886;9.394;2023-07-13T01:14:13;28.23;;;26.88;;
21505;SDS011;10914;48.886;9.394;2023-07-13T01:16:39;29.77;;;28.08;;
21505;SDS011;10914;48.886;9.394;2023-07-13T01:19:07;28.88;;;27.42;;
21505;SDS011;10914;48.886;9.394;2023-07-13T01:21:36;30.35;;;28.50;;
21505;SDS011;10914;48.886;9.394;2023-07-13T01:24:07;29.20;;;27.70;;
21505;SDS011;10914;48.886;9.394;2023-07-13T01:26:33;29.35;;;27.63;;
21505;SDS011;10914;48.886;9.394;2023-07-13T01:28:58;36.73;;;34.43;;
21505;SDS011;10914;48.886;9.394;2023-07-13T01:31:23;41.20;;;38.93;;
21505;SDS011;10914;48.886;9.394;2023-07-13T01:33:49;34.35;;;32.45;;
21505;SDS011;10914;48.886;9.394;2023-07-13T01:36:14;36.63;;;34.67;;
21505;SDS011;10914;48.886;9.394;2023-07-13T01:38:39;37.77;;;35.87;;
21505;SDS011;10914;48.886;9.394;2023-07-13T01:41:04;44.60;;;42.33;;
21505;SDS011;10914;48.886;9.394;2023-07-13T01:43:30;49.55;;;46.88;;
21505;SDS011;10914;48.886;9.394;2023-07-13T01:45:55;45.35;;;43.05;;
21505;SDS011;10914;48.886;9.394;2023-07-13T01:48:20;44.33;;;42.17;;
21505;SDS011;10914;48.886;9.394;2023-07-13T01:50:45;39.13;;;37.10;;
21505;SDS011;10914;48.886;9.394;2023-07-13T01:53:10;39.97;;;38.07;;
21505;SDS011;10914;48.886;9.394;2023-07-13T01:55:36;36.08;;;33.92;;
21505;SDS011;10914;48.886;9.394;2023-07-13T01:58:02;43.67;;;41.47;;
21505;SDS011;10914;48.886;9.394;2023-07-13T02:00:28;36.75;;;34.88;;
21505;SDS011;10914;48.886;9.394;2023-07-13T02:02:53;35.47;;;33.75;;
21505;SDS011;10914;48.886;9.394;2023-07-13T02:05:18;29.60;;;28.05;;
21505;SDS011;10914;48.886;9.394;2023-07-13T02:07:44;25.67;;;23.60;;
21505;SDS011;10914;48.886;9.394;2023-07-13T02:10:09;22.48;;;21.25;;
21505;SDS011;10914;48.886;9.394;2023-07-13T02:12:35;23.02;;;21.55;;
21505;SDS011;10914;48.886;9.394;2023-07-13T02:15:01;24.15;;;22.95;;
21505;SDS011;10914;48.886;9.394;2023-07-13T02:17:26;24.48;;;22.88;;
21505;SDS011;10914;48.886;9.394;2023-07-13T02:19:52;22.50;;;21.30;;
21505;SDS011;10914;48.886;9.394;2023-07-13T02:22:17;22.85;;;21.30;;
21505;SDS011;10914;48.886;9.394;2023-07-13T02:24:42;22.63;;;21.42;;
21505;SDS011;10914;48.886;9.394;2023-07-13T02:27:07;22.77;;;21.37;;
21505;SDS011;10914;48.886;9.394;2023-07-13T02:29:33;22.65;;;21.45;;
21505;SDS011;10914;48.886;9.394;2023-07-13T02:31:58;21.73;;;20.60;;
21505;SDS011;10914;48.886;9.394;2023-07-13T02:34:23;23.20;;;21.70;;
21505;SDS011;10914;48.886;9.394;2023-07-13T02:36:48;22.70;;;21.60;;
21505;SDS011;10914;48.886;9.394;2023-07-13T02:39:14;27.88;;;26.27;;
21505;SDS011;10914;48.886;9.394;2023-07-13T02:41:39;25.35;;;24.10;;
21505;SDS011;10914;48.886;9.394;2023-07-13T02:44:04;32.20;;;30.48;;
21505;SDS011;10914;48.886;9.394;2023-07-13T02:46:30;38.13;;;36.17;;
21505;SDS011;10914;48.886;9.394;2023-07-13T02:48:55;36.28;;;34.28;;
21505;SDS011;10914;48.886;9.394;2023-07-13T02:51:20;25.10;;;23.80;;
21505;SDS011;10914;48.886;9.394;2023-07-13T02:53:46;33.17;;;31.25;;
21505;SDS011;10914;48.886;9.394;2023-07-13T02:56:11;27.55;;;26.08;;
21505;SDS011;10914;48.886;9.394;2023-07-13T02:58:36;26.05;;;24.75;;
21505;SDS011;10914;48.886;9.394;2023-07-13T03:01:07;23.33;;;21.83;;
21505;SDS011;10914;48.886;9.394;2023-07-13T03:03:33;23.83;;;22.42;;
21505;SDS011;10914;48.886;9.394;2023-07-13T03:05:59;21.77;;;20.48;;
21505;SDS011;10914;48.886;9.394;2023-07-13T03:08:25;24.20;;;22.88;;
21505;SDS011;10914;48.886;9.394;2023-07-13T03:11:00;24.27;;;22.92;;
21505;SDS011;10914;48.886;9.394;2023-07-13T03:13:26;23.30;;;21.70;;
21505;SDS011;10914;48.886;9.394;2023-07-13T03:15:51;21.60;;;20.30;;
21505;SDS011;10914;48.886;9.394;2023-07-13T03:18:16;22.30;;;21.13;;
21505;SDS011;10914;48.886;9.394;2023-07-13T03:20:42;21.80;;;20.50;;
21505;SDS011;10914;48.886;9.394;2023-07-13T03:23:07;22.65;;;21.35;;
21505;SDS011;10914;48.886;9.394;2023-07-13T03:25:32;23.00;;;21.80;;
21505;SDS011;10914;48.886;9.394;2023-07-13T03:27:57;22.63;;;21.13;;
21505;SDS011;10914;48.886;9.394;2023-07-13T03:30:22;23.03;;;21.73;;
21505;SDS011;10914;48.886;9.394;2023-07-13T03:32:48;23.92;;;22.58;;
21505;SDS011;10914;48.886;9.394;2023-07-13T03:35:13;25.07;;;23.67;;
21505;SDS011;10914;48.886;9.394;2023-07-13T03:37:38;25.48;;;24.08;;
21505;SDS011;10914;48.886;9.394;2023-07-13T03:40:07;26.00;;;24.45;;
21505;SDS011;10914;48.886;9.394;2023-07-13T03:42:34;25.02;;;23.73;;
21505;SDS011;10914;48.886;9.394;2023-07-13T03:44:59;26.25;;;24.85;;
21505;SDS011;10914;48.886;9.394;2023-07-13T03:47:24;28.07;;;26.67;;
21505;SDS011;10914;48.886;9.394;2023-07-13T03:49:49;27.73;;;26.33;;
21505;SDS011;10914;48.886;9.394;2023-07-13T03:52:14;30.55;;;28.75;;
21505;SDS011;10914;48.886;9.394;2023-07-13T03:54:39;37.40;;;35.33;;
21505;SDS011;10914;48.886;9.394;2023-07-13T03:57:05;36.35;;;34.30;;
21505;SDS011;10914;48.886;9.394;2023-07-13T03:59:30;43.72;;;41.42;;
21505;SDS011;10914;48.886;9.394;2023-07-13T04:01:55;45.90;;;43.53;;
21505;SDS011;10914;48.886;9.394;2023-07-13T04:04:20;46.03;;;43.37;;
21505;SDS011;10914;48.886;9.394;2023-07-13T04:06:45;48.13;;;45.47;;
21505;SDS011;10914;48.886;9.394;2023-07-13T04:09:11;47.30;;;44.57;;
21505;SDS011;10914;48.886;9.394;2023-07-13T04:11:36;47.88;;;45.15;;
21505;SDS011;10914;48.886;9.394;2023-07-13T04:14:01;44.75;;;42.20;;
21505;SDS011;10914;48.886;9.394;2023-07-13T04:16:27;45.55;;;43.00;;
21505;SDS011;10914;48.886;9.394;2023-07-13T04:18:52;47.35;;;44.85;;
21505;SDS011;10914;48.886;9.394;2023-07-13T04:21:24;33.38;;;31.55;;
21505;SDS011;10914;48.886;9.394;2023-07-13T04:23:49;47.40;;;44.97;;
21505;SDS011;10914;48.886;9.394;2023-07-13T04:26:15;28.73;;;27.02;;
21505;SDS011;10914;48.886;9.394;2023-07-13T04:28:40;29.02;;;27.13;;
21505;SDS011;10914;48.886;9.394;2023-07-13T04:31:05;32.57;;;30.83;;
21505;SDS011;10914;48.886;9.394;2023-07-13T04:33:30;37.67;;;35.67;;
21505;SDS011;10914;48.886;9.394;2023-07-13T04:35:55;31.58;;;29.95;;
21505;SDS011;10914;48.886;9.394;2023-07-13T04:38:23;30.10;;;28.48;;
21505;SDS011;10914;48.886;9.394;2023-07-13T04:40:50;35.17;;;33.40;;
21505;SDS011;10914;48.886;9.394;2023-07-13T04:43:16;34.72;;;32.72;;
21505;SDS011;10914;48.886;9.394;2023-07-13T04:45:41;31.75;;;29.85;;
21505;SDS011;10914;48.886;9.394;2023-07-13T04:48:06;27.02;;;25.63;;
21505;SDS011;10914;48.886;9.394;2023-07-13T04:50:31;31.67;;;30.00;;
21505;SDS011;10914;48.886;9.394;2023-07-13T04:52:56;26.95;;;25.30;;
21505;SDS011;10914;48.886;9.394;2023-07-13T04:55:22;32.85;;;31.00;;
21505;SDS011;10914;48.886;9.394;2023-07-13T04:57:47;34.20;;;32.10;;
21505;SDS011;10914;48.886;9.394;2023-07-13T05:00:12;35.15;;;33.35;;
21505;SDS011;10914;48.886;9.394;2023-07-13T05:02:39;32.95;;;31.20;;
21505;SDS011;10914;48.886;9.394;2023-07-13T05:05:04;27.08;;;25.67;;
21505;SDS011;10914;48.886;9.394;2023-07-13T05:07:30;37.40;;;35.25;;
21505;SDS011;10914;48.886;9.394;2023-07-13T05:09:55;35.10;;;33.35;;
21505;SDS011;10914;48.886;9.394;2023-07-13T05:12:21;37.35;;;35.42;;
21505;SDS011;10914;48.886;9.394;2023-07-13T05:14:46;29.55;;;28.02;;
21505;SDS011;10914;48.886;9.394;2023-07-13T05:17:11;31.85;;;30.10;;
21505;SDS011;10914;48.886;9.394;2023-07-13T05:19:36;29.90;;;28.27;;
21505;SDS011;10914;48.886;9.394;2023-07-13T05:22:04;32.92;;;31.17;;
21505;SDS011;10914;48.886;9.394;2023-07-13T05:24:29;25.17;;;23.58;;
21505;SDS011;10914;48.886;9.394;2023-07-13T05:26:54;25.98;;;24.58;;
21505;SDS011;10914;48.886;9.394;2023-07-13T05:29:20;32.95;;;31.25;;
21505;SDS011;10914;48.886;9.394;2023-07-13T05:31:46;31.20;;;29.60;;
21505;SDS011;10914;48.886;9.394;2023-07-13T05:34:11;35.00;;;33.20;;
21505;SDS011;10914;48.886;9.394;2023-07-13T05:36:36;34.63;;;32.83;;
21505;SDS011;10914;48.886;9.394;2023-07-13T05:39:02;38.13;;;36.13;;
21505;SDS011;10914;48.886;9.394;2023-07-13T05:41:28;35.78;;;33.72;;
21505;SDS011;10914;48.886;9.394;2023-07-13T05:43:53;31.20;;;29.67;;
21505;SDS011;10914;48.886;9.394;2023-07-13T05:46:18;27.20;;;25.80;;
21505;SDS011;10914;48.886;9.394;2023-07-13T05:48:43;22.10;;;20.90;;
21505;SDS011;10914;48.886;9.394;2023-07-13T05:51:08;22.80;;;21.60;;
21505;SDS011;10914;48.886;9.394;2023-07-13T05:53:34;20.52;;;19.45;;
21505;SDS011;10914;48.886;9.394;2023-07-13T05:55:59;20.92;;;19.77;;
21505;SDS011;10914;48.886;9.394;2023-07-13T05:58:25;21.83;;;20.50;;
21505;SDS011;10914;48.886;9.394;2023-07-13T06:00:58;21.80;;;20.50;;
21505;SDS011;10914;48.886;9.394;2023-07-13T06:03:23;20.90;;;19.60;;
21505;SDS011;10914;48.886;9.394;2023-07-13T06:05:48;21.63;;;20.53;;
21505;SDS011;10914;48.886;9.394;2023-07-13T06:08:14;22.02;;;20.73;;
21505;SDS011;10914;48.886;9.394;2023-07-13T06:10:39;23.20;;;22.00;;
21505;SDS011;10914;48.886;9.394;2023-07-13T06:13:04;20.60;;;19.50;;
21505;SDS011;10914;48.886;9.394;2023-07-13T06:15:29;20.55;;;19.35;;
21505;SDS011;10914;48.886;9.394;2023-07-13T06:17:54;21.15;;;20.00;;
21505;SDS011;10914;48.886;9.394;2023-07-13T06:20:20;22.02;;;20.73;;
21505;SDS011;10914;48.886;9.394;2023-07-13T06:22:45;20.27;;;19.17;;
21505;SDS011;10914;48.886;9.394;2023-07-13T06:25:10;23.80;;;22.63;;
21505;SDS011;10914;48.886;9.394;2023-07-13T06:27:35;23.40;;;21.97;;
21505;SDS011;10914;48.886;9.394;2023-07-13T06:30:01;22.40;;;21.10;;
21505;SDS011;10914;48.886;9.394;2023-07-13T06:32:26;23.75;;;22.52;;
21505;SDS011;10914;48.886;9.394;2023-07-13T06:34:51;23.55;;;22.17;;
21505;SDS011;10914;48.886;9.394;2023-07-13T06:37:17;25.23;;;23.83;;
21505;SDS011;10914;48.886;9.394;2023-07-13T06:39:42;22.70;;;21.42;;
21505;SDS011;10914;48.886;9.394;2023-07-13T06:42:07;21.75;;;20.48;;
21505;SDS011;10914;48.886;9.394;2023-07-13T06:44:32;23.27;;;21.83;;
21505;SDS011;10914;48.886;9.394;2023-07-13T06:46:58;23.35;;;21.92;;
21505;SDS011;10914;48.886;9.394;2023-07-13T06:49:23;26.90;;;25.30;;
21505;SDS011;10914;48.886;9.394;2023-07-13T06:51:48;25.23;;;23.60;;
21505;SDS011;10914;48.886;9.394;2023-07-13T06:54:13;23.08;;;21.98;;
21505;SDS011;10914;48.886;9.394;2023-07-13T06:56:39;26.35;;;24.67;;
21505;SDS011;10914;48.886;9.394;2023-07-13T06:59:04;21.25;;;20.15;;
21505;SDS011;10914;48.886;9.394;2023-07-13T07:01:29;21.47;;;20.23;;
21505;SDS011;10914;48.886;9.394;2023-07-13T07:03:54;21.95;;;20.50;;
21505;SDS011;10914;48.886;9.394;2023-07-13T07:06:20;20.37;;;19.30;;
21505;SDS011;10914;48.886;9.394;2023-07-13T07:08:46;20.48;;;19.23;;
21505;SDS011;10914;48.886;9.394;2023-07-13T07:11:12;19.88;;;18.77;;
21505;SDS011;10914;48.886;9.394;2023-07-13T07:13:37;19.55;;;18.42;;
21505;SDS011;10914;48.886;9.394;2023-07-13T07:16:03;21.47;;;20.10;;
21505;SDS011;10914;48.886;9.394;2023-07-13T07:18:28;21.58;;;20.08;;
21505;SDS011;10914;48.886;9.394;2023-07-13T07:20:53;20.07;;;18.80;;
21505;SDS011;10914;48.886;9.394;2023-07-13T07:23:18;20.52;;;19.23;;
21505;SDS011;10914;48.886;9.394;2023-07-13T07:25:44;18.98;;;17.98;;
21505;SDS011;10914;48.886;9.394;2023-07-13T07:28:09;19.65;;;18.35;;
21505;SDS011;10914;48.886;9.394;2023-07-13T07:30:35;19.77;;;18.65;;
21505;SDS011;10914;48.886;9.394;2023-07-13T07:33:00;21.17;;;19.77;;
21505;SDS011;10914;48.886;9.394;2023-07-13T07:35:26;22.67;;;21.48;;
21505;SDS011;10914;48.886;9.394;2023-07-13T07:37:51;21.67;;;20.33;;
21505;SDS011;10914;48.886;9.394;2023-07-13T07:40:17;22.48;;;21.27;;
21505;SDS011;10914;48.886;9.394;2023-07-13T07:42:42;21.33;;;20.13;;
21505;SDS011;10914;48.886;9.394;2023-07-13T07:45:10;20.60;;;19.30;;
21505;SDS011;10914;48.886;9.394;2023-07-13T07:47:36;21.40;;;20.00;;
21505;SDS011;10914;48.886;9.394;2023-07-13T07:50:01;19.98;;;18.88;;
21505;SDS011;10914;48.886;9.394;2023-07-13T07:52:27;21.33;;;20.10;;
21505;SDS011;10914;48.886;9.394;2023-07-13T07:54:52;20.73;;;19.63;;
21505;SDS011;10914;48.886;9.394;2023-07-13T07:57:17;21.10;;;19.73;;
21505;SDS011;10914;48.886;9.394;2023-07-13T07:59:42;20.50;;;19.40;;
21505;SDS011;10914;48.886;9.394;2023-07-13T08:02:08;20.87;;;19.57;;
21505;SDS011;10914;48.886;9.394;2023-07-13T08:04:34;20.42;;;19.25;;
21505;SDS011;10914;48.886;9.394;2023-07-13T08:06:59;21.27;;;20.08;;
21505;SDS011;10914;48.886;9.394;2023-07-13T08:09:27;20.73;;;19.40;;
21505;SDS011;10914;48.886;9.394;2023-07-13T08:11:52;21.80;;;20.60;;
21505;SDS011;10914;48.886;9.394;2023-07-13T08:14:19;20.55;;;19.40;;
21505;SDS011;10914;48.886;9.394;2023-07-13T08:16:44;20.67;;;19.57;;
21505;SDS011;10914;48.886;9.394;2023-07-13T08:19:09;19.60;;;18.60;;
21505;SDS011;10914;48.886;9.394;2023-07-13T08:21:36;19.55;;;18.55;;
21505;SDS011;10914;48.886;9.394;2023-07-13T08:24:03;19.58;;;18.38;;
21505;SDS011;10914;48.886;9.394;2023-07-13T08:26:31;19.90;;;18.80;;
21505;SDS011;10914;48.886;9.394;2023-07-13T08:28:56;19.30;;;18.30;;
21505;SDS011;10914;48.886;9.394;2023-07-13T08:31:21;18.47;;;17.47;;
21505;SDS011;10914;48.886;9.394;2023-07-13T08:33:47;19.37;;;18.23;;
21505;SDS011;10914;48.886;9.394;2023-07-13T08:36:13;19.08;;;17.98;;
21505;SDS011;10914;48.886;9.394;2023-07-13T08:38:38;19.27;;;18.27;;
21505;SDS011;10914;48.886;9.394;2023-07-13T08:41:09;18.87;;;17.87;;
21505;SDS011;10914;48.886;9.394;2023-07-13T08:43:36;18.35;;;17.45;;
21505;SDS011;10914;48.886;9.394;2023-07-13T08:46:08;19.73;;;18.63;;
21505;SDS011;10914;48.886;9.394;2023-07-13T08:48:38;18.95;;;17.95;;
21505;SDS011;10914;48.886;9.394;2023-07-13T08:53:54;20.48;;;18.92;;
21505;SDS011;10914;48.886;9.394;2023-07-13T08:56:21;19.67;;;18.58;;
21505;SDS011;10914;48.886;9.394;2023-07-13T08:58:47;19.75;;;18.52;;
21505;SDS011;10914;48.886;9.394;2023-07-13T09:06:16;19.98;;;18.88;;
21505;SDS011;10914;48.886;9.394;2023-07-13T09:08:45;19.10;;;17.83;;
21505;SDS011;10914;48.886;9.394;2023-07-13T09:11:14;19.05;;;17.92;;
21505;SDS011;10914;48.886;9.394;2023-07-13T09:16:26;19.38;;;18.17;;
21505;SDS011;10914;48.886;9.394;2023-07-13T09:18:51;18.57;;;17.50;;
21505;SDS011;10914;48.886;9.394;2023-07-13T09:21:22;19.20;;;18.00;;
21505;SDS011;10914;48.886;9.394;2023-07-13T09:23:48;18.60;;;17.35;;
21505;SDS011;10914;48.886;9.394;2023-07-13T09:26:24;19.98;;;18.50;;
21505;SDS011;10914;48.886;9.394;2023-07-13T09:28:51;17.95;;;16.95;;
21505;SDS011;10914;48.886;9.394;2023-07-13T09:31:28;18.83;;;17.73;;
21505;SDS011;10914;48.886;9.394;2023-07-13T09:33:56;18.13;;;16.85;;
21505;SDS011;10914;48.886;9.394;2023-07-13T09:36:23;18.17;;;17.25;;
21505;SDS011;10914;48.886;9.394;2023-07-13T09:38:58;19.55;;;18.55;;
21505;SDS011;10914;48.886;9.394;2023-07-13T09:41:37;19.10;;;18.02;;
21505;SDS011;10914;48.886;9.394;2023-07-13T09:44:07;17.65;;;16.55;;
21505;SDS011;10914;48.886;9.394;2023-07-13T09:46:36;18.55;;;17.63;;
21505;SDS011;10914;48.886;9.394;2023-07-13T09:49:01;18.85;;;17.52;;
21505;SDS011;10914;48.886;9.394;2023-07-13T09:51:26;17.75;;;16.75;;
21505;SDS011;10914;48.886;9.394;2023-07-13T09:53:51;17.85;;;16.42;;
21505;SDS011;10914;48.886;9.394;2023-07-13T09:56:24;17.42;;;16.15;;
21505;SDS011;10914;48.886;9.394;2023-07-13T09:58:51;18.85;;;17.90;;
21505;SDS011;10914;48.886;9.394;2023-07-13T10:01:21;17.73;;;16.73;;
21505;SDS011;10914;48.886;9.394;2023-07-13T10:03:55;17.60;;;16.50;;
21505;SDS011;10914;48.886;9.394;2023-07-13T10:06:21;18.40;;;17.43;;
21505;SDS011;10914;48.886;9.394;2023-07-13T10:08:51;18.42;;;17.25;;
21505;SDS011;10914;48.886;9.394;2023-07-13T10:11:24;17.98;;;16.88;;
21505;SDS011;10914;48.886;9.394;2023-07-13T10:13:51;18.73;;;17.55;;
21505;SDS011;10914;48.886;9.394;2023-07-13T10:16:17;17.63;;;16.42;;
21505;SDS011;10914;48.886;9.394;2023-07-13T10:18:45;18.10;;;17.10;;
21505;SDS011;10914;48.886;9.394;2023-07-13T10:21:12;19.65;;;18.52;;
21505;SDS011;10914;48.886;9.394;2023-07-13T10:23:38;17.27;;;16.38;;
21505;SDS011;10914;48.886;9.394;2023-07-13T10:26:04;17.17;;;16.13;;
21505;SDS011;10914;48.886;9.394;2023-07-13T10:28:37;17.15;;;16.17;;
21505;SDS011;10914;48.886;9.394;2023-07-13T10:31:03;17.25;;;16.25;;
21505;SDS011;10914;48.886;9.394;2023-07-13T10:33:30;17.08;;;16.15;;
21505;SDS011;10914;48.886;9.394;2023-07-13T10:38:47;16.88;;;15.93;;
21505;SDS011;10914;48.886;9.394;2023-07-13T10:41:22;17.65;;;16.45;;
21505;SDS011;10914;48.886;9.394;2023-07-13T10:43:50;16.90;;;15.90;;
21505;SDS011;10914;48.886;9.394;2023-07-13T10:46:17;17.30;;;16.17;;
21505;SDS011;10914;48.886;9.394;2023-07-13T10:48:44;17.27;;;16.38;;
21505;SDS011;10914;48.886;9.394;2023-07-13T10:51:13;16.75;;;15.95;;
21505;SDS011;10914;48.886;9.394;2023-07-13T10:53:39;17.42;;;16.35;;
21505;SDS011;10914;48.886;9.394;2023-07-13T10:58:43;17.10;;;16.23;;
21505;SDS011;10914;48.886;9.394;2023-07-13T11:01:10;17.10;;;15.95;;
21505;SDS011;10914;48.886;9.394;2023-07-13T11:03:37;17.98;;;16.67;;
21505;SDS011;10914;48.886;9.394;2023-07-13T11:08:51;17.40;;;16.38;;
21505;SDS011;10914;48.886;9.394;2023-07-13T11:13:55;17.98;;;16.90;;
21505;SDS011;10914;48.886;9.394;2023-07-13T11:18:49;19.08;;;17.75;;
21505;SDS011;10914;48.886;9.394;2023-07-13T11:21:19;17.30;;;16.30;;
21505;SDS011;10914;48.886;9.394;2023-07-13T11:23:45;16.90;;;15.90;;
21505;SDS011;10914;48.886;9.394;2023-07-13T11:29:05;16.00;;;15.00;;
21505;SDS011;10914;48.886;9.394;2023-07-13T11:31:32;16.35;;;15.48;;
21505;SDS011;10914;48.886;9.394;2023-07-13T11:33:58;16.00;;;15.20;;
21505;SDS011;10914;48.886;9.394;2023-07-13T11:36:24;16.45;;;15.35;;
21505;SDS011;10914;48.886;9.394;2023-07-13T11:39:03;17.15;;;15.98;;
21505;SDS011;10914;48.886;9.394;2023-07-13T11:41:35;16.27;;;15.48;;
21505;SDS011;10914;48.886;9.394;2023-07-13T11:44:07;17.00;;;16.00;;
21505;SDS011;10914;48.886;9.394;2023-07-13T11:46:32;17.25;;;16.13;;
21505;SDS011;10914;48.886;9.394;2023-07-13T11:48:57;16.30;;;15.30;;
21505;SDS011;10914;48.886;9.394;2023-07-13T11:51:28;16.47;;;15.40;;
21505;SDS011;10914;48.886;9.394;2023-07-13T11:53:56;15.52;;;14.63;;
21505;SDS011;10914;48.886;9.394;2023-07-13T11:56:22;15.18;;;14.30;;
21505;SDS011;10914;48.886;9.394;2023-07-13T11:58:49;15.27;;;14.38;;
21505;SDS011;10914;48.886;9.394;2023-07-13T12:01:16;15.98;;;15.00;;
21505;SDS011;10914;48.886;9.394;2023-07-13T12:03:43;14.80;;;13.90;;
21505;SDS011;10914;48.886;9.394;2023-07-13T12:06:20;15.20;;;14.30;;
21505;SDS011;10914;48.886;9.394;2023-07-13T12:08:46;18.02;;;16.58;;
21505;SDS011;10914;48.886;9.394;2023-07-13T12:11:14;16.93;;;15.93;;
21505;SDS011;10914;48.886;9.394;2023-07-13T12:13:40;15.00;;;14.20;;
21505;SDS011;10914;48.886;9.394;2023-07-13T12:19:00;16.10;;;15.20;;
21505;SDS011;10914;48.886;9.394;2023-07-13T12:21:30;15.55;;;14.65;;
21505;SDS011;10914;48.886;9.394;2023-07-13T12:23:56;15.63;;;14.82;;
21505;SDS011;10914;48.886;9.394;2023-07-13T12:26:21;14.70;;;13.80;;
21505;SDS011;10914;48.886;9.394;2023-07-13T12:28:49;13.93;;;13.13;;
21505;SDS011;10914;48.886;9.394;2023-07-13T12:36:23;14.65;;;13.85;;
21505;SDS011;10914;48.886;9.394;2023-07-13T12:38:48;14.65;;;13.85;;
21505;SDS011;10914;48.886;9.394;2023-07-13T12:41:14;14.90;;;14.00;;
21505;SDS011;10914;48.886;9.394;2023-07-13T12:43:39;14.55;;;13.68;;
21505;SDS011;10914;48.886;9.394;2023-07-13T12:46:14;14.57;;;13.77;;
21505;SDS011;10914;48.886;9.394;2023-07-13T12:48:41;14.85;;;14.05;;
21505;SDS011;10914;48.886;9.394;2023-07-13T12:51:08;14.27;;;13.57;;
21505;SDS011;10914;48.886;9.394;2023-07-13T12:53:34;15.10;;;14.20;;
21505;SDS011;10914;48.886;9.394;2023-07-13T12:56:04;14.30;;;13.48;;
21505;SDS011;10914;48.886;9.394;2023-07-13T12:58:31;14.93;;;13.90;;
21505;SDS011;10914;48.886;9.394;2023-07-13T13:00:58;14.60;;;13.80;;
21505;SDS011;10914;48.886;9.394;2023-07-13T13:03:36;14.70;;;13.80;;
21505;SDS011;10914;48.886;9.394;2023-07-13T13:08:28;14.20;;;13.50;;
21505;SDS011;10914;48.886;9.394;2023-07-13T13:10:53;14.70;;;13.70;;
21505;SDS011;10914;48.886;9.394;2023-07-13T13:13:19;14.35;;;13.55;;
21505;SDS011;10914;48.886;9.394;2023-07-13T13:15:44;15.07;;;14.27;;
21505;SDS011;10914;48.886;9.394;2023-07-13T13:18:16;14.80;;;13.90;;
21505;SDS011;10914;48.886;9.394;2023-07-13T13:20:42;14.95;;;14.15;;
21505;SDS011;10914;48.886;9.394;2023-07-13T13:23:10;15.10;;;14.10;;
21505;SDS011;10914;48.886;9.394;2023-07-13T13:25:36;14.80;;;14.00;;
21505;SDS011;10914;48.886;9.394;2023-07-13T13:28:01;14.27;;;13.45;;
21505;SDS011;10914;48.886;9.394;2023-07-13T13:30:26;15.80;;;14.90;;
21505;SDS011;10914;48.886;9.394;2023-07-13T13:32:52;15.60;;;14.60;;
21505;SDS011;10914;48.886;9.394;2023-07-13T13:35:18;15.07;;;14.27;;
21505;SDS011;10914;48.886;9.394;2023-07-13T13:37:44;15.02;;;14.00;;
21505;SDS011;10914;48.886;9.394;2023-07-13T13:40:19;14.95;;;14.10;;
21505;SDS011;10914;48.886;9.394;2023-07-13T13:42:45;14.52;;;13.63;;
21505;SDS011;10914;48.886;9.394;2023-07-13T13:45:11;15.70;;;14.80;;
21505;SDS011;10914;48.886;9.394;2023-07-13T13:47:37;15.80;;;14.95;;
21505;SDS011;10914;48.886;9.394;2023-07-13T13:52:38;14.73;;;14.02;;
21505;SDS011;10914;48.886;9.394;2023-07-13T13:55:10;15.37;;;14.47;;
21505;SDS011;10914;48.886;9.394;2023-07-13T13:57:36;16.70;;;15.70;;
21505;SDS011;10914;48.886;9.394;2023-07-13T14:00:02;18.40;;;17.40;;
21505;SDS011;10914;48.886;9.394;2023-07-13T14:02:27;15.23;;;14.38;;
21505;SDS011;10914;48.886;9.394;2023-07-13T14:04:54;15.00;;;13.95;;
21505;SDS011;10914;48.886;9.394;2023-07-13T14:07:21;15.13;;;14.07;;
21505;SDS011;10914;48.886;9.394;2023-07-13T14:09:46;16.10;;;15.00;;
21505;SDS011;10914;48.886;9.394;2023-07-13T14:12:11;15.10;;;14.23;;
21505;SDS011;10914;48.886;9.394;2023-07-13T14:14:39;18.58;;;17.67;;
21505;SDS011;10914;48.886;9.394;2023-07-13T14:17:08;15.93;;;14.73;;
21505;SDS011;10914;48.886;9.394;2023-07-13T14:19:34;19.17;;;18.20;;
21505;SDS011;10914;48.886;9.394;2023-07-13T14:21:59;15.00;;;13.90;;
21505;SDS011;10914;48.886;9.394;2023-07-13T14:24:25;16.35;;;15.48;;
21505;SDS011;10914;48.886;9.394;2023-07-13T14:26:51;15.50;;;14.60;;
21505;SDS011;10914;48.886;9.394;2023-07-13T14:29:17;15.10;;;14.20;;
21505;SDS011;10914;48.886;9.394;2023-07-13T14:31:43;14.48;;;13.75;;
21505;SDS011;10914;48.886;9.394;2023-07-13T14:34:11;15.25;;;14.35;;
21505;SDS011;10914;48.886;9.394;2023-07-13T14:36:38;14.73;;;13.73;;
21505;SDS011;10914;48.886;9.394;2023-07-13T14:39:11;15.60;;;14.80;;
21505;SDS011;10914;48.886;9.394;2023-07-13T14:41:36;16.33;;;15.43;;
21505;SDS011;10914;48.886;9.394;2023-07-13T14:44:07;16.00;;;14.98;;
21505;SDS011;10914;48.886;9.394;2023-07-13T14:46:33;15.38;;;14.55;;
21505;SDS011;10914;48.886;9.394;2023-07-13T14:49:01;15.02;;;14.23;;
21505;SDS011;10914;48.886;9.394;2023-07-13T14:51:27;16.10;;;15.20;;
21505;SDS011;10914;48.886;9.394;2023-07-13T14:53:52;17.83;;;16.77;;
21505;SDS011;10914;48.886;9.394;2023-07-13T14:56:17;15.50;;;14.53;;
21505;SDS011;10914;48.886;9.394;2023-07-13T14:58:42;19.00;;;17.90;;